createdAt,value
2018-08-24T00:01:24.100Z,98.80
2018-08-24T00:04:33.957Z,99.00
2018-08-24T00:07:43.809Z,98.80
2018-08-24T00:10:53.608Z,98.70
2018-08-24T00:14:04.042Z,98.80
2018-08-24T00:17:20.033Z,98.60
2018-08-24T00:20:30.455Z,98.40
2018-08-24T00:23:40.640Z,98.50
2018-08-24T00:26:50.216Z,98.30
2018-08-24T00:30:00.267Z,98.30
2018-08-24T00:33:10.037Z,98.60
2018-08-24T00:36:20.019Z,98.70
2018-08-24T00:39:30.075Z,98.60
2018-08-24T00:42:39.985Z,98.60
2018-08-24T00:45:50.470Z,98.80
2018-08-24T00:49:00.252Z,99.00
2018-08-24T00:52:10.260Z,98.90
2018-08-24T00:55:20.145Z,99.20
2018-08-24T00:58:30.583Z,99.30
2018-08-24T01:01:40.401Z,99.80
2018-08-24T01:04:50.651Z,99.20
2018-08-24T01:08:08.117Z,99.30
2018-08-24T01:11:18.904Z,99.60
2018-08-24T01:14:29.408Z,99.70
2018-08-24T01:17:45.468Z,99.80
2018-08-24T01:20:56.712Z,99.60
2018-08-24T01:24:07.657Z,99.60
2018-08-24T01:27:17.992Z,99.80
2018-08-24T01:30:27.822Z,99.90
2018-08-24T01:33:38.407Z,99.90
2018-08-24T01:36:48.535Z,99.90
2018-08-24T01:39:58.187Z,99.90
2018-08-24T01:43:09.225Z,99.90
2018-08-24T01:46:19.847Z,99.90
2018-08-24T01:49:30.031Z,99.90
2018-08-24T01:52:39.939Z,99.90
2018-08-24T01:55:49.864Z,99.90
2018-08-24T01:59:00.293Z,99.90
2018-08-24T02:02:10.320Z,99.90
2018-08-24T02:05:20.081Z,99.90
2018-08-24T02:08:29.794Z,99.90
2018-08-24T02:11:39.765Z,99.90
2018-08-24T02:14:49.803Z,99.90
2018-08-24T02:19:05.066Z,99.90
2018-08-24T02:22:16.351Z,99.90
2018-08-24T02:25:26.678Z,99.90
2018-08-24T02:28:36.895Z,99.90
2018-08-24T02:31:50.864Z,99.90
2018-08-24T02:35:00.903Z,99.90
2018-08-24T02:38:11.090Z,99.90
2018-08-24T02:41:21.801Z,99.90
2018-08-24T02:44:31.398Z,99.90
2018-08-24T02:47:41.255Z,99.90
2018-08-24T02:50:51.395Z,99.90
2018-08-24T02:54:01.454Z,99.90
2018-08-24T02:57:11.957Z,99.90
2018-08-24T03:00:22.715Z,99.90
2018-08-24T03:03:32.714Z,99.90
2018-08-24T03:06:42.730Z,99.90
2018-08-24T03:09:53.408Z,99.90
2018-08-24T03:13:03.369Z,99.90
2018-08-24T03:16:13.252Z,99.90
2018-08-24T03:19:24.050Z,99.90
2018-08-24T03:22:35.133Z,99.90
2018-08-24T03:25:45.922Z,99.90
2018-08-24T03:28:56.009Z,99.90
2018-08-24T03:32:06.505Z,99.90
2018-08-24T03:35:16.412Z,99.90
2018-08-24T03:38:26.544Z,99.90
2018-08-24T03:41:37.401Z,99.90
2018-08-24T03:44:48.316Z,99.90
2018-08-24T03:47:58.792Z,99.90
2018-08-24T03:51:09.510Z,99.90
2018-08-24T03:54:21.449Z,99.90
2018-08-24T03:57:32.190Z,99.90
2018-08-24T04:00:42.859Z,99.90
2018-08-24T04:03:53.119Z,99.90
2018-08-24T04:07:03.767Z,99.90
2018-08-24T04:10:14.051Z,99.90
2018-08-24T04:13:24.596Z,99.90
2018-08-24T04:16:39.977Z,99.90
2018-08-24T04:19:50.711Z,99.90
2018-08-24T04:23:00.903Z,99.90
2018-08-24T04:26:11.933Z,99.90
2018-08-24T04:29:22.788Z,99.90
2018-08-24T04:32:33.418Z,99.90
2018-08-24T04:35:44.212Z,99.90
2018-08-24T04:38:55.333Z,99.90
2018-08-24T04:42:06.365Z,99.90
2018-08-24T04:45:17.053Z,99.90
2018-08-24T04:48:26.990Z,99.90
2018-08-24T04:51:37.753Z,99.90
2018-08-24T04:54:47.657Z,99.90
2018-08-24T04:57:57.602Z,99.90
2018-08-24T05:01:07.537Z,99.90
2018-08-24T05:04:18.272Z,99.90
2018-08-24T05:07:28.184Z,99.90
2018-08-24T05:10:37.994Z,99.90
2018-08-24T05:13:47.985Z,99.90
2018-08-24T05:16:57.858Z,99.90
2018-08-24T05:20:08.085Z,99.90
2018-08-24T05:23:18.806Z,99.90
2018-08-24T05:26:29.345Z,99.90
2018-08-24T05:29:39.780Z,99.90
2018-08-24T05:32:49.798Z,99.90
2018-08-24T05:35:59.763Z,99.90
2018-08-24T05:39:10.283Z,99.90
2018-08-24T05:42:20.186Z,99.90
2018-08-24T05:45:31.157Z,99.90
2018-08-24T05:48:42.204Z,99.90
2018-08-24T05:51:52.943Z,99.90
2018-08-24T05:55:03.660Z,99.90
2018-08-24T05:58:14.492Z,99.90
2018-08-24T06:01:25.346Z,99.90
2018-08-24T06:04:36.344Z,99.90
2018-08-24T06:07:47.017Z,99.90
2018-08-24T06:10:57.935Z,99.90
2018-08-24T06:14:09.106Z,99.90
2018-08-24T06:17:24.532Z,99.90
2018-08-24T06:20:44.839Z,99.90
2018-08-24T06:23:55.158Z,99.90
2018-08-24T06:27:06.186Z,99.90
2018-08-24T06:30:16.882Z,99.90
2018-08-24T06:33:27.768Z,99.90
2018-08-24T06:36:38.572Z,99.90
2018-08-24T06:39:49.270Z,99.90
2018-08-24T06:42:59.695Z,99.90
2018-08-24T06:46:10.710Z,99.90
2018-08-24T06:49:20.563Z,99.90
2018-08-24T06:52:30.464Z,99.90
2018-08-24T06:55:40.409Z,99.90
2018-08-24T06:58:50.627Z,99.90
2018-08-24T07:02:00.440Z,99.90
2018-08-24T07:05:10.519Z,99.90
2018-08-24T07:08:20.449Z,99.90
2018-08-24T07:11:30.165Z,99.90
2018-08-24T07:14:40.727Z,99.90
2018-08-24T07:17:57.106Z,99.90
2018-08-24T07:21:07.239Z,99.90
2018-08-24T07:24:17.947Z,99.90
2018-08-24T07:27:29.075Z,99.90
2018-08-24T07:30:39.340Z,99.90
2018-08-24T07:33:50.035Z,99.90
2018-08-24T07:37:00.782Z,99.90
2018-08-24T07:40:11.860Z,99.90
2018-08-24T07:43:22.226Z,99.90
2018-08-24T07:46:33.160Z,99.90
2018-08-24T07:49:43.011Z,99.90
2018-08-24T07:52:53.055Z,99.90
2018-08-24T07:56:03.871Z,99.90
2018-08-24T07:59:13.790Z,99.90
2018-08-24T08:02:29.769Z,99.90
2018-08-24T08:05:40.270Z,99.90
2018-08-24T08:08:50.114Z,99.90
2018-08-24T08:12:00.115Z,99.90
2018-08-24T08:15:11.167Z,99.90
2018-08-24T08:18:21.447Z,99.90
2018-08-24T08:21:31.827Z,99.90
2018-08-24T08:24:42.298Z,99.90
2018-08-24T08:27:53.686Z,99.90
2018-08-24T08:31:04.140Z,99.90
2018-08-24T08:34:14.003Z,99.90
2018-08-24T08:37:24.154Z,99.90
2018-08-24T08:40:33.840Z,99.90
2018-08-24T08:43:43.806Z,99.90
2018-08-24T08:46:53.695Z,99.90
2018-08-24T08:50:03.971Z,99.90
2018-08-24T08:53:14.406Z,99.90
2018-08-24T08:56:24.228Z,99.90
2018-08-24T08:59:34.583Z,99.90
2018-08-24T09:02:46.439Z,99.90
2018-08-24T09:05:56.478Z,99.90
2018-08-24T09:09:08.778Z,99.90
2018-08-24T09:12:19.397Z,99.90
2018-08-24T09:15:29.238Z,99.90
2018-08-24T09:18:44.599Z,99.90
2018-08-24T09:22:00.040Z,99.90
2018-08-24T09:25:16.089Z,99.90
2018-08-24T09:28:36.035Z,99.90
2018-08-24T09:31:46.652Z,99.90
2018-08-24T09:34:56.811Z,99.90
2018-08-24T09:38:07.062Z,99.90
2018-08-24T09:41:16.863Z,99.90
2018-08-24T09:44:26.774Z,99.90
2018-08-24T09:47:42.889Z,99.90
2018-08-24T09:50:57.985Z,99.90
2018-08-24T09:54:08.866Z,99.90
2018-08-24T09:57:18.746Z,99.90
2018-08-24T10:00:33.138Z,99.90
2018-08-24T10:03:49.091Z,99.90
2018-08-24T10:07:04.824Z,99.90
2018-08-24T10:10:15.286Z,99.90
2018-08-24T10:13:25.247Z,99.90
2018-08-24T10:16:35.404Z,99.90
2018-08-24T10:19:45.663Z,99.90
2018-08-24T10:22:56.220Z,99.90
2018-08-24T10:26:06.011Z,99.90
2018-08-24T10:29:16.273Z,99.90
2018-08-24T10:32:26.723Z,99.90
2018-08-24T10:35:36.497Z,99.90
2018-08-24T10:38:46.992Z,99.90
2018-08-24T10:41:56.733Z,99.90
2018-08-24T10:45:06.922Z,99.90
2018-08-24T10:48:16.624Z,99.90
2018-08-24T10:51:26.138Z,99.90
2018-08-24T10:54:36.093Z,99.90
2018-08-24T10:57:45.806Z,99.20
2018-08-24T11:00:55.575Z,99.60
2018-08-24T11:04:05.786Z,98.50
2018-08-24T11:07:15.690Z,98.20
2018-08-24T11:10:25.635Z,98.50
2018-08-24T11:13:35.443Z,97.70
2018-08-24T11:16:45.366Z,97.00
2018-08-24T11:19:55.420Z,97.70
2018-08-24T11:23:05.404Z,97.50
2018-08-24T11:26:15.497Z,95.60
2018-08-24T11:29:26.250Z,94.50
2018-08-24T11:32:36.089Z,94.30
2018-08-24T11:35:45.891Z,91.90
2018-08-24T11:38:55.900Z,91.40
2018-08-24T11:42:06.598Z,92.00
2018-08-24T11:45:17.111Z,92.00
2018-08-24T11:48:28.323Z,92.60
2018-08-24T11:51:38.145Z,92.60
2018-08-24T11:54:47.810Z,94.30
2018-08-24T11:57:57.864Z,95.10
2018-08-24T12:01:07.458Z,95.30
2018-08-24T12:04:17.407Z,95.40
2018-08-24T12:07:27.090Z,95.20
2018-08-24T12:10:37.037Z,94.60
2018-08-24T12:13:46.967Z,94.90
2018-08-24T12:16:56.971Z,94.50
2018-08-24T12:20:08.195Z,94.00
2018-08-24T12:23:18.818Z,94.30
2018-08-24T12:26:28.813Z,94.40
2018-08-24T12:29:38.899Z,93.70
2018-08-24T12:32:49.403Z,92.10
2018-08-24T12:35:59.460Z,92.60
2018-08-24T12:39:10.360Z,92.70
2018-08-24T12:42:20.842Z,92.00
2018-08-24T12:45:31.037Z,91.60
2018-08-24T12:48:41.402Z,91.80
2018-08-24T12:51:51.614Z,91.90
2018-08-24T12:55:01.623Z,90.90
2018-08-24T12:58:11.512Z,91.80
2018-08-24T13:01:21.539Z,90.50
2018-08-24T13:04:31.446Z,90.80
2018-08-24T13:07:41.414Z,92.00
2018-08-24T13:10:51.057Z,93.60
2018-08-24T13:14:01.170Z,94.60
2018-08-24T13:17:11.800Z,95.20
2018-08-24T13:20:21.779Z,95.70
2018-08-24T13:23:31.500Z,95.80
2018-08-24T13:26:41.286Z,95.80
2018-08-24T13:29:51.227Z,95.40
2018-08-24T13:33:02.717Z,94.90
2018-08-24T13:36:12.804Z,95.50
2018-08-24T13:39:22.818Z,95.50
2018-08-24T13:42:33.506Z,95.30
2018-08-24T13:45:43.604Z,94.70
2018-08-24T13:48:53.348Z,94.80
2018-08-24T13:52:03.277Z,94.50
2018-08-24T13:55:13.239Z,93.30
2018-08-24T13:58:23.469Z,93.80
2018-08-24T14:01:33.016Z,92.70
2018-08-24T14:04:43.187Z,91.40
2018-08-24T14:07:52.984Z,91.50
2018-08-24T14:11:02.727Z,91.10
2018-08-24T14:14:12.792Z,90.00
2018-08-24T14:17:22.651Z,84.90
2018-08-24T14:20:32.518Z,86.50
2018-08-24T14:23:42.347Z,84.30
2018-08-24T14:26:53.922Z,86.10
2018-08-24T14:30:06.134Z,85.70
2018-08-24T14:33:17.024Z,86.80
2018-08-24T14:36:27.443Z,87.00
2018-08-24T14:39:37.584Z,86.40
2018-08-24T14:42:48.491Z,85.60
2018-08-24T14:45:59.020Z,86.20
2018-08-24T14:49:09.628Z,89.70
2018-08-24T14:52:20.445Z,90.70
2018-08-24T14:55:31.182Z,92.00
2018-08-24T14:58:42.035Z,92.20
2018-08-24T15:01:52.495Z,92.80
2018-08-24T15:05:03.039Z,93.10
2018-08-24T15:08:13.490Z,93.10
2018-08-24T15:11:23.576Z,94.10
2018-08-24T15:14:34.167Z,94.10
2018-08-24T15:17:44.323Z,95.00
2018-08-24T15:20:55.853Z,95.70
2018-08-24T15:24:06.075Z,96.20
2018-08-24T15:27:16.626Z,96.50
2018-08-24T15:30:26.766Z,96.60
2018-08-24T15:33:37.500Z,96.80
2018-08-24T15:36:47.463Z,98.30
2018-08-24T15:39:57.331Z,98.80
2018-08-24T15:43:07.295Z,98.60
2018-08-24T15:46:17.481Z,98.10
2018-08-24T15:49:28.367Z,98.00
2018-08-24T15:52:39.180Z,97.20
2018-08-24T15:55:49.796Z,98.90
2018-08-24T15:58:59.787Z,98.50
2018-08-24T16:02:10.259Z,99.10
2018-08-24T16:05:20.363Z,98.80
2018-08-24T16:08:31.328Z,99.90
2018-08-24T16:11:42.070Z,99.90
2018-08-24T16:14:52.440Z,99.90
2018-08-24T16:18:08.788Z,99.90
2018-08-24T16:21:19.015Z,99.90
2018-08-24T16:24:29.502Z,99.90
2018-08-24T16:27:40.435Z,99.90
2018-08-24T16:30:51.552Z,99.90
2018-08-24T16:34:01.654Z,99.90
2018-08-24T16:37:11.688Z,99.90
2018-08-24T16:40:22.415Z,99.90
2018-08-24T16:43:32.561Z,99.90
2018-08-24T16:46:42.884Z,99.90
2018-08-24T16:49:53.799Z,99.90
2018-08-24T16:53:04.621Z,99.90
2018-08-24T16:56:15.493Z,99.90
2018-08-24T16:59:26.300Z,99.90
2018-08-24T17:02:36.215Z,99.90
2018-08-24T17:05:47.613Z,99.90
2018-08-24T17:08:57.739Z,99.90
2018-08-24T17:12:07.764Z,99.90
2018-08-24T17:15:18.784Z,99.90
2018-08-24T17:18:29.331Z,99.90
2018-08-24T17:21:40.086Z,99.90
2018-08-24T18:14:28.704Z,99.90
2018-08-24T18:17:39.137Z,99.90
2018-08-24T18:20:49.918Z,99.90
2018-08-24T18:24:00.092Z,99.90
2018-08-24T18:27:11.903Z,99.90
2018-08-24T18:30:26.715Z,99.90
2018-08-24T18:33:37.974Z,99.90
2018-08-24T18:36:48.044Z,99.90
2018-08-24T18:39:58.370Z,99.90
2018-08-24T18:43:08.858Z,99.90
2018-08-24T18:46:19.346Z,99.90
2018-08-24T18:49:29.565Z,99.90
2018-08-24T18:52:39.972Z,99.90
2018-08-24T18:55:50.384Z,99.90
2018-08-24T18:59:01.410Z,99.90
2018-08-24T19:02:12.287Z,99.90
2018-08-24T19:05:26.033Z,99.90
2018-08-24T19:08:36.704Z,99.90
2018-08-24T19:11:52.727Z,99.90
2018-08-24T19:15:03.720Z,99.90
2018-08-24T19:18:19.234Z,99.90
2018-08-24T19:21:34.880Z,99.90
2018-08-24T19:24:44.976Z,99.90
2018-08-24T19:28:00.299Z,99.90
2018-08-24T19:31:10.940Z,99.90
2018-08-24T19:34:21.048Z,99.90
2018-08-24T19:37:31.138Z,99.90
2018-08-24T19:40:47.424Z,99.90
2018-08-24T19:43:58.082Z,99.90
2018-08-24T19:47:14.286Z,99.90
2018-08-24T19:50:24.961Z,99.90
2018-08-24T19:53:36.399Z,99.90
2018-08-24T19:56:46.937Z,99.90
2018-08-24T19:59:56.958Z,99.90
2018-08-24T20:03:07.856Z,99.90
2018-08-24T20:06:23.645Z,99.90
2018-08-24T20:09:39.281Z,99.90
2018-08-24T20:12:49.528Z,99.90
2018-08-24T20:16:05.497Z,99.90
2018-08-24T20:19:16.056Z,99.90
2018-08-24T20:22:26.862Z,99.90
2018-08-24T20:25:38.003Z,99.90
2018-08-24T20:28:48.126Z,99.90
2018-08-24T20:31:58.927Z,99.90
2018-08-24T20:35:09.210Z,99.90
2018-08-24T20:38:20.104Z,99.90
2018-08-24T20:41:30.765Z,99.90
2018-08-24T20:44:41.470Z,99.90
2018-08-24T20:47:52.390Z,99.90
2018-08-24T20:51:02.580Z,99.90
2018-08-24T20:54:13.345Z,99.90
2018-08-24T20:57:23.687Z,99.90
2018-08-24T21:00:33.866Z,99.90
2018-08-24T21:03:43.865Z,99.90
2018-08-24T21:06:54.946Z,99.90
2018-08-24T21:10:05.937Z,99.90
2018-08-24T21:13:16.516Z,99.90
2018-08-24T21:16:28.030Z,99.90
2018-08-24T21:19:38.085Z,99.90
2018-08-24T21:22:48.167Z,99.90
2018-08-24T21:25:58.371Z,99.90
2018-08-24T21:29:08.779Z,99.90
2018-08-24T21:32:19.976Z,99.90
2018-08-24T21:35:30.173Z,99.90
2018-08-24T21:38:40.395Z,99.90
2018-08-24T21:41:50.711Z,99.90
2018-08-24T21:45:01.596Z,99.90
2018-08-24T21:48:11.722Z,99.90
2018-08-24T21:51:21.786Z,99.90
2018-08-24T21:54:31.758Z,99.90
2018-08-24T21:57:42.115Z,99.90
2018-08-24T22:00:52.175Z,99.90
2018-08-24T22:04:02.274Z,99.90
2018-08-24T22:07:12.487Z,99.90
2018-08-24T22:10:22.604Z,99.90
2018-08-24T22:13:32.478Z,99.90
2018-08-24T22:16:43.324Z,99.90
2018-08-24T22:19:53.448Z,99.90
2018-08-24T22:23:03.511Z,99.90
2018-08-24T22:26:13.546Z,99.90
2018-08-24T22:29:23.972Z,99.90
2018-08-24T22:32:34.355Z,99.90
2018-08-24T22:35:44.451Z,99.90
2018-08-24T22:38:55.019Z,99.90
2018-08-24T22:42:05.100Z,99.90
2018-08-24T22:45:15.534Z,99.90
2018-08-24T22:48:25.530Z,99.90
2018-08-24T22:51:35.484Z,99.90
2018-08-24T22:54:45.948Z,99.90
2018-08-24T22:57:56.254Z,99.90
2018-08-24T23:01:06.939Z,99.90
2018-08-24T23:04:17.379Z,99.90
2018-08-24T23:07:27.778Z,99.90
2018-08-24T23:10:37.659Z,99.90
2018-08-24T23:13:48.167Z,99.90
2018-08-24T23:16:58.591Z,99.90
2018-08-24T23:20:09.701Z,99.90
2018-08-24T23:23:20.370Z,99.90
2018-08-24T23:26:31.185Z,99.90
2018-08-24T23:29:41.332Z,99.90
2018-08-24T23:32:51.279Z,99.90
2018-08-24T23:36:01.082Z,99.90
2018-08-24T23:39:12.252Z,99.90
2018-08-24T23:42:22.292Z,99.90
2018-08-24T23:45:32.892Z,99.90
2018-08-24T23:48:43.742Z,99.90
2018-08-24T23:51:54.072Z,99.90
2018-08-24T23:55:04.155Z,99.90
2018-08-24T23:58:14.270Z,99.90
